Time;durP1;ratioP1;P1;durP2;ratioP2;P2;SDS_P1;SDS_P2;PMS_P1;PMS_P2;Temp;Humidity;BMP_temperature;BMP_pressure;BME280_temperature;BME280_humidity;BME280_pressure;Samples;Min_cycle;Max_cycle;Signal;HPM_P1;HPM_P2
2022/02/25 00:00:47;;;;;;;4.85;0.85;;;0.90;99.90;;;;;;4918031;29;20035;-75
2022/02/25 00:03:14;;;;;;;2.33;0.90;;;1.00;99.90;;;;;;4917896;29;20028;-75
2022/02/25 00:05:42;;;;;;;3.47;0.98;;;1.00;99.90;;;;;;4916720;29;20400;-75
2022/02/25 00:08:07;;;;;;;0.95;0.70;;;0.90;99.90;;;;;;4917822;29;20024;-75
2022/02/25 00:10:34;;;;;;;0.93;0.80;;;0.90;99.90;;;;;;4917934;29;20155;-74
2022/02/25 00:13:00;;;;;;;1.02;0.77;;;0.80;99.90;;;;;;4917610;29;20468;-74
2022/02/25 00:15:26;;;;;;;4.55;0.80;;;0.80;99.90;;;;;;4918076;29;20080;-74
2022/02/25 00:17:52;;;;;;;2.08;0.88;;;0.80;99.90;;;;;;4917971;29;20032;-74
2022/02/25 00:20:18;;;;;;;1.20;1.00;;;0.70;99.90;;;;;;4917826;29;20071;-74
2022/02/25 00:22:43;;;;;;;1.20;0.90;;;0.70;99.90;;;;;;4917865;29;20107;-74
2022/02/25 00:25:11;;;;;;;1.90;0.90;;;0.70;99.90;;;;;;4917704;29;20043;-74
2022/02/25 00:27:38;;;;;;;1.95;0.80;;;0.70;99.90;;;;;;4917500;29;20460;-74
2022/02/25 00:30:05;;;;;;;5.40;0.88;;;0.70;99.90;;;;;;4917466;29;20035;-74
2022/02/25 00:32:31;;;;;;;7.63;1.05;;;0.60;99.90;;;;;;4917431;29;20119;-74
2022/02/25 00:34:57;;;;;;;2.65;1.08;;;0.60;99.90;;;;;;4917748;29;20045;-74
2022/02/25 00:37:23;;;;;;;3.33;0.90;;;0.60;99.90;;;;;;4917139;29;20056;-74
2022/02/25 00:39:48;;;;;;;3.30;1.05;;;0.60;99.90;;;;;;4917285;29;20568;-74
2022/02/25 00:42:14;;;;;;;2.75;0.90;;;0.60;99.90;;;;;;4917393;29;20032;-74
2022/02/25 00:44:40;;;;;;;1.35;0.88;;;0.60;99.90;;;;;;4917830;29;20448;-74
2022/02/25 00:47:06;;;;;;;1.92;0.85;;;0.60;99.90;;;;;;4917314;29;20103;-74
2022/02/25 00:49:32;;;;;;;2.17;0.68;;;0.60;99.90;;;;;;4917208;29;20428;-74
2022/02/25 00:51:57;;;;;;;3.90;1.13;;;0.50;99.90;;;;;;4917070;29;20024;-74
2022/02/25 00:54:23;;;;;;;4.60;0.90;;;0.40;99.90;;;;;;4916876;29;20063;-75
2022/02/25 00:56:49;;;;;;;3.17;0.70;;;0.30;99.90;;;;;;4916978;29;20056;-74
2022/02/25 00:59:15;;;;;;;1.85;0.70;;;0.20;99.90;;;;;;4916878;29;20062;-74
2022/02/25 01:01:41;;;;;;;2.28;0.80;;;0.10;99.90;;;;;;4916765;29;20032;-74
2022/02/25 01:04:07;;;;;;;2.70;0.95;;;0.10;99.90;;;;;;4916664;29;20103;-74
2022/02/25 01:06:32;;;;;;;1.50;0.90;;;0.10;99.90;;;;;;4916849;29;20107;-74
2022/02/25 01:08:58;;;;;;;4.38;0.80;;;0.10;99.90;;;;;;4916765;29;20020;-74
2022/02/25 01:11:24;;;;;;;3.40;1.48;;;0.10;99.90;;;;;;4916599;29;20031;-74
2022/02/25 01:13:50;;;;;;;2.10;1.00;;;0.20;99.90;;;;;;4917047;29;20064;-74
2022/02/25 01:16:15;;;;;;;1.73;0.73;;;0.20;99.90;;;;;;4916690;29;20024;-72
2022/02/25 01:18:41;;;;;;;1.85;0.70;;;0.10;99.90;;;;;;4917054;29;20399;-72
2022/02/25 01:21:07;;;;;;;6.47;1.00;;;-0.10;99.90;;;;;;4916525;29;20036;-74
2022/02/25 01:23:33;;;;;;;1.30;0.85;;;-0.10;99.90;;;;;;4916579;29;20033;-74
2022/02/25 01:25:59;;;;;;;1.52;0.80;;;-0.20;99.90;;;;;;4916551;29;20464;-67
2022/02/25 01:28:25;;;;;;;3.13;0.73;;;-0.30;99.90;;;;;;4916614;29;20036;-69
2022/02/25 01:30:51;;;;;;;1.90;0.88;;;-0.40;99.90;;;;;;4916770;29;20145;-70
2022/02/25 01:33:16;;;;;;;1.85;0.90;;;-0.40;99.90;;;;;;4916144;29;20460;-70
2022/02/25 01:35:42;;;;;;;1.25;0.70;;;-0.30;99.90;;;;;;4916344;29;20024;-70
2022/02/25 01:38:08;;;;;;;2.55;0.77;;;-0.40;99.90;;;;;;4915928;29;20048;-70
2022/02/25 01:40:34;;;;;;;1.05;0.88;;;-0.40;99.90;;;;;;4916166;29;20052;-70
2022/02/25 01:42:59;;;;;;;1.90;1.05;;;-0.40;99.90;;;;;;4916484;29;20040;-70
2022/02/25 01:45:26;;;;;;;1.83;0.90;;;-0.40;99.90;;;;;;4915930;29;20559;-68
2022/02/25 01:47:52;;;;;;;1.92;0.90;;;-0.30;99.90;;;;;;4916135;29;20027;-68
2022/02/25 01:50:17;;;;;;;1.55;1.00;;;-0.40;99.90;;;;;;4916245;29;20523;-68
2022/02/25 01:52:49;;;;;;;3.00;0.90;;;-0.40;99.90;;;;;;4916403;29;20411;-68
2022/02/25 01:55:15;;;;;;;1.55;0.90;;;-0.30;99.90;;;;;;4915985;29;20116;-68
2022/02/25 01:57:41;;;;;;;2.08;0.80;;;-0.30;99.90;;;;;;4916015;29;20025;-68
2022/02/25 02:00:08;;;;;;;2.33;1.00;;;-0.30;99.90;;;;;;4916210;29;20066;-68
2022/02/25 02:02:34;;;;;;;1.75;1.08;;;-0.30;99.90;;;;;;4916017;29;20075;-68
2022/02/25 02:05:00;;;;;;;1.20;0.70;;;-0.30;99.90;;;;;;4916200;29;20055;-68
2022/02/25 02:07:26;;;;;;;3.00;1.00;;;-0.30;99.90;;;;;;4915808;29;20051;-68
2022/02/25 02:09:51;;;;;;;4.50;0.90;;;-0.20;99.90;;;;;;4916232;29;20027;-68
2022/02/25 02:15:26;;;;;;;5.43;1.00;;;-0.30;99.90;;;;;;4915681;29;20035;-68
2022/02/25 02:17:53;;;;;;;1.30;0.90;;;-0.30;99.90;;;;;;4914540;29;20033;-68
2022/02/25 02:20:18;;;;;;;1.85;1.00;;;-0.30;99.90;;;;;;4915684;29;20040;-68
2022/02/25 02:23:00;;;;;;;2.58;1.40;;;-0.30;99.90;;;;;;4916179;29;20156;-68
2022/02/25 02:52:07;;;;;;;3.45;0.77;;;-0.10;99.90;;;;;;4914397;29;20517;-68
2022/02/25 02:54:33;;;;;;;1.25;0.80;;;-0.10;99.90;;;;;;4915663;29;20036;-68
2022/02/25 02:56:58;;;;;;;1.75;0.85;;;-0.10;99.90;;;;;;4915769;29;20028;-68
2022/02/25 02:59:24;;;;;;;2.97;0.88;;;-0.10;99.90;;;;;;4915648;29;20477;-69
2022/02/25 03:01:50;;;;;;;2.00;1.00;;;0.00;99.90;;;;;;4915338;29;20479;-68
2022/02/25 03:37:55;;;;;;;2.55;1.00;;;-0.10;99.90;;;;;;5416645;23;20587;-68
2022/02/25 03:40:21;;;;;;;3.38;0.75;;;-0.10;99.90;;;;;;4956269;29;20038;-69
2022/02/25 03:42:47;;;;;;;1.60;1.00;;;-0.10;99.90;;;;;;4956396;28;20050;-69
2022/02/25 03:45:13;;;;;;;2.42;1.23;;;-0.20;99.90;;;;;;4956576;29;20030;-69
2022/02/25 03:47:39;;;;;;;1.52;0.88;;;-0.20;99.90;;;;;;4956365;28;20031;-69
2022/02/25 03:50:07;;;;;;;2.03;1.08;;;-0.20;99.90;;;;;;4956535;28;20383;-69
2022/02/25 03:52:33;;;;;;;2.10;0.90;;;-0.20;99.90;;;;;;4956599;28;20402;-69
2022/02/25 03:54:58;;;;;;;1.75;1.00;;;-0.20;99.90;;;;;;4956579;28;20027;-68
2022/02/25 03:57:25;;;;;;;1.95;0.90;;;-0.20;99.90;;;;;;4956133;28;20023;-68
2022/02/25 03:59:51;;;;;;;1.25;0.88;;;-0.10;99.90;;;;;;4956137;28;20063;-68
2022/02/25 04:02:17;;;;;;;1.45;0.90;;;-0.10;99.90;;;;;;4956245;29;20031;-68
2022/02/25 04:04:42;;;;;;;2.00;0.73;;;-0.10;99.90;;;;;;4956111;28;20390;-69
2022/02/25 04:07:08;;;;;;;1.90;0.77;;;-0.10;99.90;;;;;;4955932;29;20043;-68
2022/02/25 04:09:34;;;;;;;3.20;1.02;;;-0.10;99.90;;;;;;4956023;29;20019;-68
2022/02/25 04:12:02;;;;;;;1.92;0.90;;;-0.10;99.90;;;;;;4956064;29;20031;-69
2022/02/25 04:14:28;;;;;;;1.42;0.90;;;-0.20;99.90;;;;;;4955834;28;20550;-69
2022/02/25 04:16:54;;;;;;;3.92;0.77;;;-0.20;99.90;;;;;;4955999;29;20034;-68
2022/02/25 04:19:20;;;;;;;2.42;0.80;;;-0.20;99.90;;;;;;4955828;28;20102;-68
2022/02/25 04:21:46;;;;;;;2.13;0.90;;;-0.20;99.90;;;;;;4956100;28;20042;-68
2022/02/25 04:24:13;;;;;;;2.63;1.08;;;-0.20;99.90;;;;;;4955660;28;20019;-68
2022/02/25 04:26:39;;;;;;;2.95;1.10;;;-0.20;99.90;;;;;;4955996;28;20387;-69
2022/02/25 04:29:05;;;;;;;3.28;0.93;;;-0.30;99.90;;;;;;4955884;28;20032;-66
2022/02/25 04:31:31;;;;;;;2.70;0.77;;;-0.20;99.90;;;;;;4955460;28;20122;-68
2022/02/25 04:33:56;;;;;;;2.10;0.93;;;-0.30;99.90;;;;;;4955574;28;20028;-68
2022/02/25 04:36:22;;;;;;;4.13;1.27;;;-0.30;99.90;;;;;;4955425;29;20023;-68
2022/02/25 04:38:49;;;;;;;2.33;1.00;;;-0.40;99.90;;;;;;4954720;28;20055;-68
2022/02/25 04:41:15;;;;;;;3.35;1.00;;;-0.30;99.90;;;;;;4955210;28;20376;-68
2022/02/25 04:43:41;;;;;;;1.70;1.10;;;-0.40;99.90;;;;;;4955403;28;20560;-68
2022/02/25 04:46:13;;;;;;;1.98;0.80;;;-0.30;99.90;;;;;;4955517;28;20023;-67
2022/02/25 04:48:39;;;;;;;4.13;1.00;;;-0.40;99.90;;;;;;4955689;28;20028;-68
2022/02/25 04:51:05;;;;;;;2.75;1.05;;;-0.40;99.90;;;;;;4955644;29;20035;-68
2022/02/25 04:53:31;;;;;;;2.53;0.93;;;-0.40;99.90;;;;;;4955404;28;20038;-68
2022/02/25 04:55:57;;;;;;;2.47;0.80;;;-0.40;99.90;;;;;;4955336;28;20393;-68
2022/02/25 04:58:22;;;;;;;6.30;1.10;;;-0.40;99.90;;;;;;4955249;29;20023;-68
2022/02/25 05:00:48;;;;;;;3.10;1.00;;;-0.50;99.90;;;;;;4955145;29;20031;-68
2022/02/25 05:03:14;;;;;;;2.45;1.13;;;-0.50;99.90;;;;;;4954973;28;20363;-67
2022/02/25 05:05:40;;;;;;;1.85;1.20;;;-0.40;99.90;;;;;;4953797;29;20680;-68
2022/02/25 05:08:05;;;;;;;4.15;1.73;;;-0.40;99.90;;;;;;4954854;28;20459;-68
2022/02/25 05:10:32;;;;;;;3.38;1.05;;;-0.50;99.90;;;;;;4954812;29;20054;-68
2022/02/25 05:12:58;;;;;;;1.83;0.82;;;-0.50;99.90;;;;;;4955125;28;20081;-68
2022/02/25 05:20:52;;;;;;;1.67;0.90;;;-0.50;99.90;;;;;;4954955;29;20105;-68
2022/02/25 05:23:19;;;;;;;2.72;1.35;;;-0.50;99.90;;;;;;4954693;28;20102;-66
2022/02/25 05:25:44;;;;;;;3.70;0.80;;;-0.60;99.90;;;;;;4954522;28;20391;-65
2022/02/25 05:28:11;;;;;;;1.52;0.90;;;-0.50;99.90;;;;;;4952851;29;20031;-65
2022/02/25 05:30:37;;;;;;;1.73;0.90;;;-0.30;99.90;;;;;;4935434;29;20028;-66
2022/02/25 05:33:04;;;;;;;1.40;0.80;;;-0.10;99.90;;;;;;4919425;29;20047;-66
2022/02/25 05:35:30;;;;;;;1.83;0.93;;;0.00;99.90;;;;;;4918946;29;20054;-70
2022/02/25 05:37:55;;;;;;;2.33;1.15;;;-0.10;99.90;;;;;;4924267;29;20131;-70
2022/02/25 05:40:22;;;;;;;3.30;1.13;;;-0.10;99.90;;;;;;4925428;29;20527;-69
2022/02/25 05:42:48;;;;;;;8.35;1.30;;;-0.20;99.90;;;;;;4923523;29;20050;-71
2022/02/25 05:45:15;;;;;;;2.28;1.17;;;-0.30;99.90;;;;;;4924365;29;20024;-71
2022/02/25 05:47:42;;;;;;;2.10;1.20;;;-0.30;99.90;;;;;;4922887;29;20039;-69
2022/02/25 05:50:13;;;;;;;2.38;1.00;;;-0.40;99.90;;;;;;4923949;29;20024;-68
2022/02/25 05:52:40;;;;;;;3.00;1.17;;;-0.50;99.90;;;;;;4923621;29;20024;-68
2022/02/25 05:55:07;;;;;;;4.45;1.38;;;-0.50;99.90;;;;;;4925210;29;20098;-68
2022/02/25 05:57:33;;;;;;;2.33;1.25;;;-0.60;99.90;;;;;;4924864;29;20525;-67
2022/02/25 05:59:59;;;;;;;6.13;1.50;;;-0.70;99.90;;;;;;4926360;29;20027;-68
2022/02/25 06:02:25;;;;;;;5.90;1.10;;;-0.80;99.90;;;;;;4930882;29;20020;-68
2022/02/25 06:04:51;;;;;;;1.95;0.85;;;-0.90;99.90;;;;;;4928985;29;20027;-68
2022/02/25 06:07:17;;;;;;;2.35;1.30;;;-0.90;99.90;;;;;;4934767;29;20087;-68
2022/02/25 06:09:42;;;;;;;2.65;1.30;;;-0.90;99.90;;;;;;4934887;29;20074;-68
2022/02/25 06:12:09;;;;;;;3.92;1.20;;;-0.90;99.90;;;;;;4935265;29;20055;-68
2022/02/25 06:14:34;;;;;;;3.35;1.08;;;-1.00;99.90;;;;;;4934847;29;20059;-69
2022/02/25 06:17:00;;;;;;;5.00;1.27;;;-1.00;99.90;;;;;;4934972;29;20057;-67
2022/02/25 06:19:26;;;;;;;1.83;0.88;;;-1.10;99.90;;;;;;4934774;29;20074;-67
2022/02/25 06:21:52;;;;;;;1.42;0.90;;;-0.60;99.90;;;;;;4935059;29;20083;-71
2022/02/25 06:24:17;;;;;;;4.07;1.10;;;-0.60;99.90;;;;;;4934447;29;20027;-72
2022/02/25 06:26:43;;;;;;;2.70;1.10;;;-0.70;99.90;;;;;;4934762;29;20036;-67
2022/02/25 06:29:10;;;;;;;3.40;1.15;;;-0.80;99.90;;;;;;4934746;29;20031;-67
2022/02/25 06:31:36;;;;;;;2.00;1.17;;;-0.80;99.90;;;;;;4934539;29;20395;-67
2022/02/25 06:34:02;;;;;;;2.20;1.20;;;-0.90;99.90;;;;;;4934905;29;20031;-67
2022/02/25 06:36:28;;;;;;;5.68;1.27;;;-0.90;99.90;;;;;;4934482;29;20111;-67
2022/02/25 06:38:53;;;;;;;2.17;1.15;;;-0.90;99.90;;;;;;4934422;29;20491;-67
2022/02/25 06:41:19;;;;;;;2.40;1.00;;;-0.80;99.90;;;;;;4934689;29;20360;-67
2022/02/25 06:43:45;;;;;;;3.38;0.98;;;-0.80;99.90;;;;;;4934738;29;20034;-67
2022/02/25 06:46:11;;;;;;;1.10;0.85;;;-0.90;99.90;;;;;;4934826;29;20479;-67
2022/02/25 06:48:40;;;;;;;2.88;1.08;;;-0.80;99.90;;;;;;4934598;29;20468;-67
2022/02/25 06:51:06;;;;;;;1.15;1.05;;;-0.80;99.90;;;;;;4933325;29;20035;-67
2022/02/25 06:53:32;;;;;;;2.72;0.93;;;-0.80;99.90;;;;;;4934332;29;20027;-70
2022/02/25 06:55:58;;;;;;;4.85;1.08;;;-0.70;99.90;;;;;;4934373;29;20120;-70
2022/02/25 06:58:23;;;;;;;2.33;0.95;;;0.00;99.90;;;;;;4934164;29;20091;-69
2022/02/25 07:00:49;;;;;;;2.67;0.90;;;0.70;99.90;;;;;;4934442;29;20031;-68
2022/02/25 07:03:15;;;;;;;1.90;1.20;;;0.50;99.90;;;;;;4936848;29;20484;-68
2022/02/25 07:05:41;;;;;;;22.90;8.00;;;0.20;99.90;;;;;;4938052;29;20492;-68
2022/02/25 07:08:08;;;;;;;7.43;3.10;;;0.00;99.90;;;;;;4938130;29;20023;-70
2022/02/25 07:10:35;;;;;;;21.20;8.52;;;-0.20;99.90;;;;;;4937791;29;20032;-69
2022/02/25 07:13:03;;;;;;;32.88;12.50;;;-0.30;99.90;;;;;;4938139;29;20032;-67
2022/02/25 07:15:29;;;;;;;4.88;2.45;;;-0.40;99.90;;;;;;4937674;29;20028;-65
2022/02/25 07:17:55;;;;;;;3.38;1.85;;;-0.50;99.90;;;;;;4937690;29;20514;-65
2022/02/25 07:20:21;;;;;;;1.50;0.82;;;-0.50;99.90;;;;;;4937529;29;20047;-64
2022/02/25 07:22:47;;;;;;;2.17;1.13;;;-0.60;99.90;;;;;;4934280;29;20028;-64
2022/02/25 07:25:17;;;;;;;4.55;3.85;;;-0.60;99.90;;;;;;4928491;29;20107;-64
2022/02/25 07:27:43;;;;;;;4.60;2.80;;;-0.60;99.90;;;;;;4928291;29;20104;-64
2022/02/25 07:30:11;;;;;;;5.82;1.20;;;-0.60;99.90;;;;;;4926577;29;20020;-66
2022/02/25 07:32:37;;;;;;;3.47;1.25;;;-0.60;99.90;;;;;;4928249;29;20035;-69
2022/02/25 07:35:07;;;;;;;2.78;1.67;;;0.60;99.90;;;;;;4925994;29;20515;-68
2022/02/25 07:37:33;;;;;;;;;;;0.50;99.90;;;;;;4936869;29;20048;-68
2022/02/25 07:40:00;;;;;;;1.55;1.15;;;0.20;99.90;;;;;;4937680;29;19907;-68
2022/02/25 07:42:26;;;;;;;2.88;1.38;;;0.00;99.90;;;;;;4937455;29;20526;-68
2022/02/25 07:44:52;;;;;;;2.83;1.08;;;-0.20;99.90;;;;;;4937307;29;20039;-69
2022/02/25 07:47:19;;;;;;;3.10;1.27;;;-0.30;99.90;;;;;;4937365;29;20024;-69
2022/02/25 07:49:46;;;;;;;2.28;0.88;;;-0.30;99.90;;;;;;4937059;29;20051;-68
2022/02/25 07:52:12;;;;;;;1.60;0.90;;;-0.30;99.90;;;;;;4936912;29;20487;-68
2022/02/25 07:54:38;;;;;;;2.20;1.20;;;-0.40;99.90;;;;;;4936888;29;20110;-69
2022/02/25 07:57:04;;;;;;;4.00;0.90;;;-0.40;99.90;;;;;;4936948;29;20159;-68
2022/02/25 07:59:31;;;;;;;6.00;1.20;;;-0.30;99.90;;;;;;4936814;29;20036;-70
2022/02/25 08:01:56;;;;;;;2.65;1.20;;;-0.30;99.90;;;;;;4936808;29;20115;-69
2022/02/25 08:04:22;;;;;;;4.20;0.93;;;-0.30;99.90;;;;;;4936831;29;20475;-69
2022/02/25 08:06:48;;;;;;;2.75;1.02;;;0.20;99.90;;;;;;4924713;29;20401;-71
2022/02/25 08:09:14;;;;;;;3.80;1.20;;;0.70;99.90;;;;;;4930719;29;20024;-69
2022/02/25 08:11:40;;;;;;;2.22;1.02;;;1.50;99.90;;;;;;4917664;29;20451;-69
2022/02/25 08:14:06;;;;;;;3.00;1.17;;;1.40;99.90;;;;;;4916739;29;20038;-69
2022/02/25 08:16:32;;;;;;;3.00;0.90;;;0.90;99.90;;;;;;4917543;29;20028;-69
2022/02/25 08:18:57;;;;;;;3.67;1.00;;;0.70;99.90;;;;;;4917606;29;20036;-69
2022/02/25 08:21:23;;;;;;;2.65;0.85;;;0.50;99.90;;;;;;4917366;29;20032;-69
2022/02/25 08:23:49;;;;;;;3.42;1.00;;;0.40;99.90;;;;;;4916481;29;20024;-69
2022/02/25 08:26:14;;;;;;;1.73;0.95;;;0.40;99.90;;;;;;4917462;29;20365;-69
2022/02/25 08:28:40;;;;;;;4.90;1.13;;;0.30;99.90;;;;;;4917534;29;20031;-69
2022/02/25 08:31:11;;;;;;;6.25;1.10;;;0.30;99.90;;;;;;4917382;29;20059;-69
2022/02/25 08:33:38;;;;;;;1.83;0.90;;;0.20;99.90;;;;;;4917043;29;20407;-69
2022/02/25 08:36:05;;;;;;;2.28;0.90;;;0.20;99.90;;;;;;4917311;29;20024;-69
2022/02/25 08:38:30;;;;;;;3.03;1.00;;;0.20;99.90;;;;;;4916709;29;20081;-69
2022/02/25 08:40:56;;;;;;;1.38;0.90;;;0.20;99.90;;;;;;4917212;29;20040;-69
2022/02/25 08:43:22;;;;;;;3.53;0.90;;;0.20;99.90;;;;;;4916974;29;20152;-69
2022/02/25 08:45:48;;;;;;;1.70;0.98;;;0.20;99.90;;;;;;4917128;29;20028;-69
2022/02/25 08:48:14;;;;;;;4.97;1.00;;;0.20;99.90;;;;;;4917263;29;20020;-69
2022/02/25 08:50:41;;;;;;;3.83;1.10;;;0.30;99.90;;;;;;4915731;29;20130;-69
2022/02/25 08:53:07;;;;;;;2.65;0.70;;;0.30;99.90;;;;;;4917035;29;20036;-69
2022/02/25 08:55:33;;;;;;;2.95;0.90;;;0.30;99.90;;;;;;4916732;29;20028;-69
2022/02/25 08:57:59;;;;;;;1.30;0.90;;;0.30;99.90;;;;;;4916833;29;20031;-69
2022/02/25 09:00:26;;;;;;;2.17;1.10;;;0.30;99.90;;;;;;4916775;29;20040;-69
2022/02/25 09:02:53;;;;;;;3.40;1.20;;;0.30;99.90;;;;;;4916943;29;20091;-69
2022/02/25 09:05:21;;;;;;;2.67;0.90;;;0.30;99.90;;;;;;4916948;29;20028;-69
2022/02/25 09:07:48;;;;;;;2.45;1.00;;;0.30;99.90;;;;;;4917123;29;20449;-69
2022/02/25 09:10:15;;;;;;;2.83;0.80;;;0.40;99.90;;;;;;4916651;29;20111;-69
2022/02/25 09:12:42;;;;;;;1.55;0.80;;;0.40;99.90;;;;;;4916835;29;20044;-69
2022/02/25 09:15:11;;;;;;;3.22;1.00;;;0.40;99.90;;;;;;4916592;29;20033;-69
2022/02/25 09:17:39;;;;;;;1.15;0.80;;;0.40;99.90;;;;;;4916731;29;20437;-69
2022/02/25 09:20:06;;;;;;;1.75;0.80;;;0.40;99.90;;;;;;4916407;29;20024;-69
2022/02/25 09:22:33;;;;;;;1.20;0.90;;;0.40;99.90;;;;;;4916722;29;20132;-69
2022/02/25 09:24:59;;;;;;;3.22;1.08;;;0.40;99.90;;;;;;4916341;29;20024;-69
2022/02/25 09:27:27;;;;;;;2.75;1.10;;;0.30;99.90;;;;;;4916305;29;20103;-71
2022/02/25 09:29:53;;;;;;;2.45;0.95;;;0.30;99.90;;;;;;4916609;29;20361;-69
2022/02/25 09:32:20;;;;;;;1.65;0.88;;;0.30;99.90;;;;;;4915272;29;20024;-69
2022/02/25 09:34:46;;;;;;;2.90;1.00;;;0.40;99.90;;;;;;4916217;29;20039;-69
2022/02/25 09:37:12;;;;;;;2.75;1.17;;;0.30;99.90;;;;;;4916020;29;20088;-69
2022/02/25 09:39:38;;;;;;;1.50;0.80;;;0.40;99.90;;;;;;4916041;29;20060;-69
2022/02/25 09:42:05;;;;;;;2.10;1.05;;;0.40;99.90;;;;;;4916209;29;20082;-69
2022/02/25 09:44:33;;;;;;;2.10;1.15;;;0.40;99.90;;;;;;4915956;29;20024;-70
2022/02/25 09:46:59;;;;;;;3.47;1.17;;;0.40;99.90;;;;;;4916433;29;20435;-69
2022/02/25 09:49:24;;;;;;;3.42;0.88;;;0.40;99.90;;;;;;4915889;29;20104;-69
2022/02/25 09:51:52;;;;;;;3.80;1.20;;;0.40;99.90;;;;;;4916021;29;20161;-69
2022/02/25 09:54:19;;;;;;;2.53;1.10;;;0.40;99.90;;;;;;4915922;29;20028;-69
2022/02/25 09:56:47;;;;;;;3.67;1.05;;;0.50;99.90;;;;;;4915778;29;20123;-69
2022/02/25 09:59:14;;;;;;;1.65;0.90;;;0.50;99.90;;;;;;4916197;29;20052;-68
2022/02/25 10:01:40;;;;;;;1.10;0.90;;;0.40;99.90;;;;;;4915843;29;20052;-68
2022/02/25 10:04:22;;;;;;;2.15;1.25;;;1.10;99.90;;;;;;4915825;29;20461;-68
2022/02/25 10:06:49;;;;;;;5.95;1.20;;;1.30;99.90;;;;;;4915899;29;20416;-68
2022/02/25 10:09:31;;;;;;;2.30;0.82;;;1.20;99.90;;;;;;4915905;29;20028;-68
2022/02/25 10:12:05;;;;;;;1.00;0.82;;;1.10;99.90;;;;;;4917817;29;20381;-68
2022/02/25 10:14:37;;;;;;;3.10;1.10;;;1.30;99.90;;;;;;4916077;29;20052;-69
2022/02/25 10:17:14;;;;;;;2.00;1.05;;;1.30;99.90;;;;;;4915749;29;20032;-69
2022/02/25 10:19:47;;;;;;;1.45;0.93;;;1.30;99.90;;;;;;4915579;29;20027;-69
2022/02/25 10:22:18;;;;;;;2.03;0.95;;;1.30;99.90;;;;;;4915430;29;20408;-68
2022/02/25 10:24:46;;;;;;;2.67;1.05;;;1.30;99.90;;;;;;4918128;29;20416;-69
2022/02/25 10:27:22;;;;;;;3.63;1.08;;;1.30;99.90;;;;;;4925397;29;20374;-68
2022/02/25 10:30:01;;;;;;;2.30;1.08;;;1.40;99.90;;;;;;4925818;29;20087;-69
2022/02/25 10:32:35;;;;;;;2.33;1.20;;;1.50;99.90;;;;;;4923400;29;20031;-69
2022/02/25 10:35:27;;;;;;;1.98;1.00;;;1.50;99.90;;;;;;4920313;29;20572;-70
2022/02/25 10:38:05;;;;;;;3.35;1.10;;;1.50;99.90;;;;;;4924108;29;20048;-69
2022/02/25 10:40:34;;;;;;;3.58;0.90;;;1.60;99.90;;;;;;4929621;29;20123;-70
2022/02/25 10:43:01;;;;;;;1.25;0.80;;;1.60;99.90;;;;;;4929657;29;20364;-70
2022/02/25 10:45:33;;;;;;;2.58;1.17;;;1.60;99.90;;;;;;4938321;29;20062;-71
2022/02/25 10:48:05;;;;;;;2.00;0.75;;;1.70;99.90;;;;;;4938651;29;20032;-70
2022/02/25 10:50:48;;;;;;;2.05;1.02;;;1.70;99.90;;;;;;4936912;29;20032;-71
2022/02/25 10:53:16;;;;;;;2.17;0.90;;;1.70;99.90;;;;;;4928377;29;20034;-70
2022/02/25 10:55:42;;;;;;;3.83;0.90;;;1.70;99.90;;;;;;4926988;29;20035;-70
2022/02/25 10:58:08;;;;;;;1.55;0.93;;;1.70;99.90;;;;;;4928176;29;20083;-70
2022/02/25 11:00:34;;;;;;;2.03;0.75;;;1.60;99.90;;;;;;4920611;29;20040;-71
2022/02/25 11:03:00;;;;;;;1.60;0.80;;;1.70;99.90;;;;;;4927412;29;20028;-71
2022/02/25 11:05:34;;;;;;;2.47;0.93;;;1.70;99.90;;;;;;4929046;29;20031;-70
2022/02/25 11:08:02;;;;;;;1.58;0.95;;;1.70;99.90;;;;;;4928855;29;20020;-70
2022/02/25 11:10:30;;;;;;;2.78;0.90;;;2.00;99.90;;;;;;4932525;29;20043;-71
2022/02/25 11:13:01;;;;;;;3.08;0.93;;;2.90;99.90;;;;;;4937884;29;20035;-70
2022/02/25 11:15:29;;;;;;;2.28;0.90;;;3.00;99.90;;;;;;4937931;29;20500;-70
2022/02/25 11:17:56;;;;;;;2.45;0.80;;;2.80;99.90;;;;;;4937264;29;20106;-70
2022/02/25 11:20:27;;;;;;;3.22;0.88;;;2.50;99.90;;;;;;4937677;29;20042;-70
2022/02/25 11:22:58;;;;;;;1.13;0.80;;;2.30;99.90;;;;;;4937948;29;20070;-70
2022/02/25 11:25:25;;;;;;;0.95;0.80;;;2.20;99.90;;;;;;4937940;29;20028;-70
2022/02/25 11:27:51;;;;;;;2.85;0.80;;;2.10;99.90;;;;;;4937446;29;20043;-70
2022/02/25 11:30:21;;;;;;;1.33;0.85;;;2.10;99.90;;;;;;4937586;29;20036;-70
2022/02/25 11:32:56;;;;;;;2.85;1.00;;;2.10;99.90;;;;;;4937819;29;20023;-70
2022/02/25 11:35:44;;;;;;;1.70;0.75;;;2.10;99.90;;;;;;4937471;29;20116;-70
2022/02/25 11:38:11;;;;;;;2.42;0.70;;;2.10;99.90;;;;;;4926783;29;20408;-70
2022/02/25 11:40:56;;;;;;;1.65;0.73;;;2.10;99.90;;;;;;4937162;29;20032;-70
2022/02/25 11:43:45;;;;;;;1.13;0.75;;;2.10;99.90;;;;;;4937320;29;20028;-70
2022/02/25 11:46:22;;;;;;;2.85;0.90;;;2.10;99.90;;;;;;4937653;29;20039;-70
2022/02/25 11:48:55;;;;;;;1.65;0.80;;;2.20;99.90;;;;;;4936048;29;20424;-70
2022/02/25 11:51:29;;;;;;;1.67;0.80;;;2.20;99.90;;;;;;4937369;29;20151;-70
2022/02/25 11:57:01;;;;;;;2.80;0.80;;;2.20;99.90;;;;;;4937172;29;20032;-70
2022/02/25 11:59:36;;;;;;;2.17;0.70;;;2.30;99.90;;;;;;4937120;29;20502;-70
2022/02/25 12:02:03;;;;;;;2.35;0.80;;;2.30;99.90;;;;;;4937100;29;20552;-70
2022/02/25 12:04:32;;;;;;;2.50;0.75;;;2.30;99.90;;;;;;4937117;29;20027;-70
2022/02/25 12:07:11;;;;;;;2.33;0.70;;;2.30;99.90;;;;;;4937031;29;20023;-70
2022/02/25 12:09:45;;;;;;;0.85;0.70;;;2.30;99.90;;;;;;4936846;29;20023;-70
2022/02/25 12:12:23;;;;;;;3.33;0.90;;;2.30;99.90;;;;;;4936916;29;20024;-70
2022/02/25 12:15:10;;;;;;;1.70;0.70;;;2.20;99.90;;;;;;4936540;29;20048;-70
2022/02/25 12:17:38;;;;;;;2.33;0.70;;;2.30;99.90;;;;;;4936730;29;20027;-70
2022/02/25 12:20:09;;;;;;;1.50;0.73;;;2.30;99.90;;;;;;4936741;29;20117;-70
2022/02/25 12:22:55;;;;;;;1.85;0.80;;;2.30;99.90;;;;;;4936605;29;20067;-70
2022/02/25 12:25:41;;;;;;;2.15;0.70;;;2.20;99.90;;;;;;4936513;29;20119;-70
2022/02/25 12:28:10;;;;;;;2.08;0.70;;;2.20;99.90;;;;;;4936642;29;20034;-70
2022/02/25 12:30:44;;;;;;;2.05;0.80;;;2.20;99.90;;;;;;4935085;29;20027;-70
2022/02/25 12:33:33;;;;;;;1.38;0.60;;;2.20;99.90;;;;;;4936482;29;20023;-70
2022/02/25 12:36:16;;;;;;;1.02;0.85;;;2.20;99.90;;;;;;4936473;29;20024;-70
2022/02/25 12:38:41;;;;;;;0.68;0.65;;;2.20;99.90;;;;;;4936297;29;20048;-70
2022/02/25 12:41:19;;;;;;;1.13;0.65;;;2.30;99.90;;;;;;4936545;29;20031;-70
2022/02/25 12:43:58;;;;;;;1.45;0.80;;;2.30;99.90;;;;;;4936276;29;20024;-70
2022/02/25 12:46:29;;;;;;;1.05;0.68;;;2.30;99.90;;;;;;4936248;29;20028;-70
2022/02/25 12:48:56;;;;;;;2.17;0.65;;;2.30;99.90;;;;;;4936077;29;20390;-70
2022/02/25 12:51:23;;;;;;;2.15;0.70;;;2.40;99.90;;;;;;4936121;29;20147;-70
2022/02/25 12:53:57;;;;;;;0.85;0.70;;;2.40;99.90;;;;;;4936111;29;20039;-70
2022/02/25 12:56:28;;;;;;;0.77;0.77;;;2.50;99.90;;;;;;4935771;29;20126;-69
2022/02/25 12:59:05;;;;;;;1.55;0.70;;;2.60;99.90;;;;;;4935650;29;20024;-72
2022/02/25 13:01:32;;;;;;;0.82;0.80;;;3.40;99.90;;;;;;4935565;29;20102;-69
2022/02/25 13:04:00;;;;;;;1.90;0.70;;;3.90;99.90;;;;;;4935904;29;20038;-70
2022/02/25 13:06:31;;;;;;;1.50;0.80;;;4.50;99.90;;;;;;4935182;29;20031;-70
2022/02/25 13:08:58;;;;;;;2.30;0.95;;;4.30;99.90;;;;;;4935241;29;20107;-70
2022/02/25 13:11:25;;;;;;;1.25;0.75;;;3.90;99.90;;;;;;4935996;29;20036;-70
2022/02/25 13:13:52;;;;;;;2.60;0.77;;;3.60;99.90;;;;;;4935623;29;20035;-70
2022/02/25 13:16:19;;;;;;;1.77;0.70;;;3.50;99.90;;;;;;4936058;29;20175;-70
2022/02/25 13:18:45;;;;;;;1.88;1.20;;;3.40;99.90;;;;;;4935931;29;20539;-68
2022/02/25 13:21:11;;;;;;;1.30;0.90;;;3.30;99.90;;;;;;4935637;29;20118;-68
2022/02/25 13:23:48;;;;;;;3.97;0.95;;;3.40;99.90;;;;;;4935535;29;20034;-67
2022/02/25 13:26:20;;;;;;;1.23;0.70;;;3.30;99.90;;;;;;4935628;29;20563;-68
2022/02/25 13:28:46;;;;;;;1.17;0.70;;;3.20;99.90;;;;;;4935519;29;20028;-68
2022/02/25 13:31:32;;;;;;;1.90;0.70;;;3.10;99.90;;;;;;4935431;29;20066;-68
2022/02/25 13:33:58;;;;;;;0.60;0.60;;;3.10;99.90;;;;;;4933964;29;20035;-67
2022/02/25 13:36:24;;;;;;;1.15;0.80;;;3.50;99.90;;;;;;4935044;29;20028;-68
2022/02/25 13:38:57;;;;;;;1.13;0.73;;;4.00;99.90;;;;;;4934839;29;20087;-67
2022/02/25 13:41:31;;;;;;;1.05;0.52;;;3.80;99.90;;;;;;4933200;29;20130;-68
2022/02/25 13:43:57;;;;;;;2.38;1.20;;;3.60;99.90;;;;;;4934856;29;20050;-68
2022/02/25 13:46:30;;;;;;;0.95;0.80;;;3.60;99.90;;;;;;4928982;29;20027;-68
2022/02/25 13:52:27;;;;;;;0.80;0.80;;;3.30;99.90;;;;;;4925606;29;20042;-68
2022/02/25 13:55:04;;;;;;;2.97;0.63;;;3.20;97.00;;;;;;4932149;29;20465;-68
2022/02/25 13:57:42;;;;;;;3.63;0.90;;;3.00;98.50;;;;;;4934723;29;20023;-68
2022/02/25 14:00:29;;;;;;;0.85;0.60;;;3.00;99.70;;;;;;4925241;29;20411;-67
2022/02/25 14:02:55;;;;;;;0.82;0.68;;;2.80;96.50;;;;;;4933908;29;20431;-68
2022/02/25 14:05:23;;;;;;;2.65;0.68;;;2.90;99.90;;;;;;4934908;29;20035;-68
2022/02/25 14:07:55;;;;;;;1.00;0.50;;;2.80;98.00;;;;;;4934810;29;20036;-68
2022/02/25 14:10:22;;;;;;;2.38;0.90;;;2.70;98.30;;;;;;4934883;29;20026;-68
2022/02/25 14:12:49;;;;;;;0.88;0.88;;;2.70;99.10;;;;;;4934141;29;20060;-68